createdAt,value
2022-09-18T00:02:34.006Z,39.79
2022-09-18T00:05:23.819Z,39.50
2022-09-18T00:08:12.303Z,39.87
2022-09-18T00:11:00.738Z,39.53
2022-09-18T00:13:49.550Z,39.63
2022-09-18T00:16:38.217Z,39.81
2022-09-18T00:19:26.755Z,39.79
2022-09-18T00:22:16.572Z,39.79
2022-09-18T00:25:05.501Z,39.89
2022-09-18T00:27:53.967Z,39.67
2022-09-18T00:30:42.418Z,39.79
2022-09-18T00:33:30.926Z,40.02
2022-09-18T00:36:20.142Z,39.80
2022-09-18T00:39:10.229Z,39.74
2022-09-18T00:41:58.737Z,40.10
2022-09-18T00:44:48.339Z,40.03
2022-09-18T00:47:38.938Z,39.74
2022-09-18T00:50:28.109Z,40.07
2022-09-18T00:53:16.943Z,40.09
2022-09-18T00:56:07.526Z,40.21
2022-09-18T00:58:56.065Z,40.29
2022-09-18T01:01:44.673Z,39.84
2022-09-18T01:04:33.613Z,40.32
2022-09-18T01:07:29.308Z,40.20
2022-09-18T01:10:31.989Z,39.79
2022-09-18T01:13:28.969Z,39.99
2022-09-18T01:16:21.325Z,40.20
2022-09-18T01:19:17.091Z,40.21
2022-09-18T01:22:17.885Z,39.93
2022-09-18T01:25:21.569Z,40.06
2022-09-18T01:28:18.700Z,40.16
2022-09-18T01:31:11.831Z,40.01
2022-09-18T01:34:02.615Z,39.88
2022-09-18T01:36:53.992Z,40.06
2022-09-18T01:39:44.883Z,40.32
2022-09-18T01:42:34.513Z,40.08
2022-09-18T01:45:27.969Z,39.95
2022-09-18T01:48:20.172Z,40.31
2022-09-18T01:51:11.664Z,40.22
2022-09-18T01:54:02.281Z,40.42
2022-09-18T01:56:54.910Z,40.15
2022-09-18T01:59:46.560Z,40.19
2022-09-18T02:02:39.123Z,40.37
2022-09-18T02:05:29.875Z,40.43
2022-09-18T02:08:22.113Z,40.30
2022-09-18T02:11:12.264Z,40.19
2022-09-18T02:14:05.617Z,40.58
2022-09-18T02:16:56.568Z,40.29
2022-09-18T02:19:49.202Z,40.31
2022-09-18T02:22:39.338Z,40.48
2022-09-18T02:25:31.559Z,40.55
2022-09-18T02:28:22.103Z,40.44
2022-09-18T02:31:12.906Z,40.39
2022-09-18T02:34:01.593Z,40.38
2022-09-18T02:37:03.046Z,40.37
2022-09-18T02:40:03.663Z,40.36
2022-09-18T02:43:00.375Z,40.61
2022-09-18T02:45:54.306Z,40.54
2022-09-18T02:48:48.951Z,40.45
2022-09-18T02:51:44.907Z,40.39
2022-09-18T02:54:40.507Z,40.49
2022-09-18T02:57:32.185Z,40.33
2022-09-18T03:00:20.932Z,40.33
2022-09-18T03:03:12.643Z,40.57
2022-09-18T03:06:03.110Z,40.47
2022-09-18T03:08:51.537Z,40.49
2022-09-18T03:11:41.540Z,40.58
2022-09-18T03:14:30.053Z,40.73
2022-09-18T03:17:20.597Z,40.37
2022-09-18T03:20:10.943Z,40.72
2022-09-18T03:22:59.408Z,40.65
2022-09-18T03:25:50.746Z,40.51
2022-09-18T03:28:47.975Z,40.43
2022-09-18T03:31:36.475Z,40.41
2022-09-18T03:34:25.007Z,40.40
2022-09-18T03:37:13.420Z,40.66
2022-09-18T03:40:01.962Z,40.52
2022-09-18T03:42:50.849Z,40.30
2022-09-18T03:45:40.712Z,40.39
2022-09-18T03:48:29.267Z,40.73
2022-09-18T03:51:18.057Z,40.57
2022-09-18T03:54:07.037Z,40.39
2022-09-18T03:56:55.604Z,40.42
2022-09-18T03:59:44.117Z,40.32
2022-09-18T04:02:34.033Z,40.44
2022-09-18T04:05:22.590Z,40.75
2022-09-18T04:08:11.129Z,40.48
2022-09-18T04:10:59.971Z,40.39
2022-09-18T04:13:48.675Z,40.48
2022-09-18T04:16:37.199Z,40.84
2022-09-18T04:19:29.585Z,40.54
2022-09-18T04:22:18.032Z,40.75
2022-09-18T04:25:07.670Z,40.71
2022-09-18T04:27:56.497Z,40.50
2022-09-18T04:30:44.949Z,40.77
2022-09-18T04:33:33.475Z,40.65
2022-09-18T04:36:25.764Z,40.62
2022-09-18T04:39:16.406Z,40.51
2022-09-18T04:42:05.423Z,40.44
2022-09-18T04:44:53.873Z,40.55
2022-09-18T04:47:42.366Z,40.52
2022-09-18T04:50:30.999Z,40.44
2022-09-18T04:53:20.969Z,40.67
2022-09-18T04:56:09.456Z,40.64
2022-09-18T04:58:57.879Z,40.81
2022-09-18T05:01:46.711Z,40.82
2022-09-18T05:04:35.244Z,40.70
2022-09-18T05:07:23.806Z,40.87
2022-09-18T05:10:13.697Z,40.74
2022-09-18T05:13:02.244Z,40.70
2022-09-18T05:15:50.769Z,40.44
2022-09-18T05:18:39.335Z,40.61
2022-09-18T05:21:27.818Z,40.84
2022-09-18T05:24:17.471Z,40.78
2022-09-18T05:27:07.731Z,40.28
2022-09-18T05:29:56.281Z,40.54
2022-09-18T05:32:44.804Z,40.72
2022-09-18T05:35:34.514Z,40.77
2022-09-18T05:38:25.375Z,40.61
2022-09-18T05:41:13.877Z,40.94
2022-09-18T05:44:04.337Z,40.85
2022-09-18T05:46:52.868Z,40.81
2022-09-18T05:49:43.633Z,40.81
2022-09-18T05:52:32.054Z,40.70
2022-09-18T05:55:21.108Z,40.62
2022-09-18T05:58:14.490Z,40.77
2022-09-18T06:01:04.723Z,40.79
2022-09-18T06:03:53.466Z,40.52
2022-09-18T06:06:42.030Z,40.61
2022-09-18T06:09:30.888Z,40.61
2022-09-18T06:12:19.587Z,40.51
2022-09-18T06:15:09.422Z,40.70
2022-09-18T06:18:00.178Z,40.65
2022-09-18T06:20:54.485Z,40.47
2022-09-18T06:23:43.505Z,40.62
2022-09-18T06:26:32.029Z,40.60
2022-09-18T06:29:20.496Z,40.79
2022-09-18T06:32:08.979Z,40.99
2022-09-18T06:35:00.795Z,40.79
2022-09-18T06:37:51.941Z,40.57
2022-09-18T06:40:40.488Z,40.79
2022-09-18T06:43:29.149Z,40.60
2022-09-18T06:46:17.731Z,40.69
2022-09-18T06:49:06.675Z,40.51
2022-09-18T06:51:56.720Z,40.87
2022-09-18T06:54:45.239Z,40.90
2022-09-18T06:57:33.794Z,40.88
2022-09-18T07:00:22.653Z,40.96
2022-09-18T07:03:11.704Z,40.90
2022-09-18T07:06:00.151Z,40.93
2022-09-18T07:08:50.144Z,40.92
2022-09-18T07:11:39.527Z,40.82
2022-09-18T07:14:28.037Z,40.65
2022-09-18T07:17:19.130Z,40.96
2022-09-18T07:20:09.958Z,40.91
2022-09-18T07:23:00.285Z,40.96
2022-09-18T07:25:50.100Z,40.74
2022-09-18T07:28:38.884Z,41.00
2022-09-18T07:31:27.473Z,40.69
2022-09-18T07:34:17.223Z,41.08
2022-09-18T07:37:05.742Z,40.73
2022-09-18T07:39:54.917Z,40.25
2022-09-18T07:42:44.963Z,38.40
2022-09-18T07:45:35.205Z,36.77
2022-09-18T07:48:23.860Z,36.79
2022-09-18T07:51:12.428Z,37.06
2022-09-18T07:54:01.128Z,38.24
2022-09-18T07:56:49.927Z,38.90
2022-09-18T07:59:44.386Z,38.99
2022-09-18T08:02:33.264Z,39.03
2022-09-18T08:05:24.791Z,38.76
2022-09-18T08:08:14.973Z,39.24
2022-09-18T08:11:03.565Z,38.98
2022-09-18T08:13:52.379Z,39.02
2022-09-18T08:16:42.485Z,39.03
2022-09-18T08:19:31.167Z,38.65
2022-09-18T08:22:19.611Z,38.78
2022-09-18T08:25:09.051Z,38.86
2022-09-18T08:28:01.696Z,38.58
2022-09-18T08:30:50.253Z,38.71
2022-09-18T08:33:40.167Z,38.55
2022-09-18T08:36:28.727Z,38.52
2022-09-18T08:39:17.257Z,38.20
2022-09-18T08:42:14.926Z,38.41
2022-09-18T08:45:09.094Z,38.62
2022-09-18T08:47:59.588Z,38.11
2022-09-18T08:50:57.804Z,38.40
2022-09-18T08:53:48.846Z,38.25
2022-09-18T08:56:37.625Z,38.87
2022-09-18T08:59:30.939Z,38.38
2022-09-18T09:02:30.288Z,37.88
2022-09-18T09:05:21.474Z,37.81
2022-09-18T09:08:25.816Z,37.99
2022-09-18T09:11:19.519Z,38.12
2022-09-18T09:14:23.680Z,37.92
2022-09-18T09:17:22.544Z,38.12
2022-09-18T09:20:22.689Z,38.12
2022-09-18T09:23:21.440Z,37.99
2022-09-18T09:26:13.549Z,35.55
2022-09-18T09:29:04.463Z,34.73
2022-09-18T09:31:57.037Z,34.92
2022-09-18T09:34:49.040Z,35.38
2022-09-18T09:37:41.175Z,35.57
2022-09-18T09:40:36.170Z,35.87
2022-09-18T09:43:30.214Z,34.96
2022-09-18T09:46:25.202Z,35.38
2022-09-18T09:49:15.765Z,36.17
2022-09-18T09:52:09.614Z,36.54
2022-09-18T09:55:00.853Z,36.18
2022-09-18T09:57:56.923Z,36.61
2022-09-18T10:00:48.356Z,36.66
2022-09-18T10:03:43.323Z,36.64
2022-09-18T10:06:38.676Z,36.52
2022-09-18T10:09:36.993Z,36.05
2022-09-18T10:12:32.590Z,35.70
2022-09-18T10:15:24.965Z,36.07
2022-09-18T10:18:16.573Z,35.98
2022-09-18T10:21:16.040Z,36.96
2022-09-18T10:24:15.139Z,36.61
2022-09-18T10:27:05.328Z,36.44
2022-09-18T10:29:55.055Z,35.92
2022-09-18T10:32:44.912Z,36.56
2022-09-18T10:35:42.761Z,36.59
2022-09-18T10:38:34.493Z,37.21
2022-09-18T10:41:30.132Z,37.25
2022-09-18T10:44:25.298Z,36.06
2022-09-18T10:47:22.671Z,35.76
2022-09-18T10:50:20.208Z,35.62
2022-09-18T10:53:25.712Z,36.00
2022-09-18T10:56:20.066Z,36.63
2022-09-18T10:59:16.403Z,36.93
2022-09-18T11:02:06.999Z,36.95
2022-09-18T11:04:57.962Z,37.16
2022-09-18T11:07:50.668Z,37.47
2022-09-18T11:10:39.242Z,37.48
2022-09-18T11:13:28.926Z,37.76
2022-09-18T11:16:24.704Z,37.74
2022-09-18T11:19:17.938Z,37.83
2022-09-18T11:22:08.367Z,38.35
2022-09-18T11:25:08.783Z,37.90
2022-09-18T11:27:58.941Z,38.38
2022-09-18T11:30:57.112Z,38.57
2022-09-18T11:33:49.139Z,38.59
2022-09-18T11:36:40.925Z,38.50
2022-09-18T11:39:35.188Z,38.97
2022-09-18T11:42:25.121Z,38.53
2022-09-18T11:45:24.234Z,38.39
2022-09-18T11:48:22.781Z,38.74
2022-09-18T11:51:15.057Z,38.43
2022-09-18T11:54:07.648Z,38.57
2022-09-18T11:57:00.472Z,38.58
2022-09-18T11:59:54.196Z,38.79
2022-09-18T12:02:47.440Z,38.43
2022-09-18T12:05:46.860Z,38.17
2022-09-18T12:08:44.160Z,38.14
2022-09-18T12:11:36.638Z,37.63
2022-09-18T12:14:29.588Z,37.51
2022-09-18T12:17:22.144Z,37.44
2022-09-18T12:20:13.356Z,37.46
2022-09-18T12:23:03.076Z,37.41
2022-09-18T12:26:01.293Z,37.21
2022-09-18T12:29:04.382Z,36.93
2022-09-18T12:31:59.911Z,36.86
2022-09-18T12:34:54.957Z,37.01
2022-09-18T12:37:51.397Z,36.97
2022-09-18T12:40:55.505Z,36.83
2022-09-18T12:43:56.862Z,37.15
2022-09-18T12:46:56.126Z,37.15
2022-09-18T12:49:57.937Z,37.26
2022-09-18T12:53:09.148Z,37.31
2022-09-18T12:56:07.331Z,36.98
2022-09-18T12:59:11.806Z,36.65
2022-09-18T13:02:06.163Z,36.52
2022-09-18T13:05:00.022Z,36.75
2022-09-18T13:07:53.199Z,36.92
2022-09-18T13:10:43.887Z,36.56
2022-09-18T13:13:37.712Z,37.10
2022-09-18T13:16:33.586Z,36.86
2022-09-18T13:19:28.188Z,36.28
2022-09-18T13:22:20.059Z,36.76
2022-09-18T13:25:25.567Z,36.45
2022-09-18T13:28:16.327Z,36.62
2022-09-18T13:31:26.424Z,36.72
2022-09-18T13:34:20.730Z,36.53
2022-09-18T13:37:09.465Z,36.37
2022-09-18T13:40:10.258Z,36.60
2022-09-18T13:42:59.468Z,36.68
2022-09-18T13:45:48.214Z,36.58
2022-09-18T13:48:43.123Z,36.53
2022-09-18T13:51:33.190Z,36.39
2022-09-18T13:54:25.058Z,36.67
2022-09-18T13:57:31.184Z,36.83
2022-09-18T14:00:42.433Z,36.84
2022-09-18T14:03:36.717Z,36.43
2022-09-18T14:06:45.354Z,36.03
2022-09-18T14:09:52.123Z,36.16
2022-09-18T14:12:41.977Z,36.62
2022-09-18T14:15:30.574Z,36.84
2022-09-18T14:18:25.449Z,38.01
2022-09-18T14:21:19.514Z,39.11
2022-09-18T14:24:39.132Z,39.27
2022-09-18T14:27:36.777Z,39.62
2022-09-18T14:30:29.114Z,39.53
2022-09-18T14:33:19.635Z,39.10
2022-09-18T14:36:11.750Z,38.97
2022-09-18T14:39:02.573Z,39.25
2022-09-18T14:41:51.346Z,38.08
2022-09-18T14:44:40.066Z,38.65
2022-09-18T14:47:29.838Z,38.82
2022-09-18T14:50:27.511Z,38.74
2022-09-18T14:53:23.621Z,38.77
2022-09-18T14:56:14.132Z,38.58
2022-09-18T14:59:06.057Z,37.93
2022-09-18T15:01:54.577Z,38.34
2022-09-18T15:04:44.447Z,38.05
2022-09-18T15:07:34.960Z,38.17
2022-09-18T15:10:24.482Z,38.42
2022-09-18T15:13:14.151Z,38.37
2022-09-18T15:16:05.135Z,38.72
2022-09-18T15:18:53.667Z,38.72
2022-09-18T15:21:49.325Z,39.10
2022-09-18T15:24:37.830Z,38.89
2022-09-18T15:27:26.395Z,38.50
2022-09-18T15:30:18.679Z,38.79
2022-09-18T15:33:09.567Z,38.86
2022-09-18T15:35:58.324Z,38.67
2022-09-18T15:38:48.898Z,38.67
2022-09-18T15:41:45.583Z,39.05
2022-09-18T15:45:11.046Z,39.19
2022-09-18T15:48:01.287Z,38.96
2022-09-18T15:50:49.834Z,38.80
2022-09-18T15:53:38.611Z,38.94
2022-09-18T15:56:28.777Z,38.97
2022-09-18T15:59:20.593Z,38.89
2022-09-18T16:02:20.751Z,38.73
2022-09-18T16:05:10.194Z,38.97
2022-09-18T16:08:00.340Z,38.78
2022-09-18T16:10:51.099Z,38.97
2022-09-18T16:13:40.960Z,38.64
2022-09-18T16:16:30.787Z,38.99
2022-09-18T16:19:20.161Z,38.56
2022-09-18T16:22:13.831Z,38.86
2022-09-18T16:25:02.291Z,38.58
2022-09-18T16:27:52.124Z,38.48
2022-09-18T16:30:42.666Z,38.85
2022-09-18T16:33:32.533Z,38.73
2022-09-18T16:36:27.449Z,38.92
2022-09-18T16:39:17.388Z,38.56
2022-09-18T16:42:17.869Z,38.48
2022-09-18T16:45:07.526Z,38.38
2022-09-18T16:48:00.570Z,38.43
2022-09-18T16:50:49.494Z,38.36
2022-09-18T16:53:38.230Z,38.44
2022-09-18T16:56:28.948Z,38.55
2022-09-18T16:59:17.550Z,38.52
2022-09-18T17:02:08.816Z,38.46
2022-09-18T17:05:01.560Z,38.70
2022-09-18T17:07:49.968Z,38.68
2022-09-18T17:10:43.164Z,38.81
2022-09-18T17:13:33.455Z,38.94
2022-09-18T17:16:41.275Z,39.33
2022-09-18T17:19:30.845Z,38.97
2022-09-18T17:22:22.690Z,38.87
2022-09-18T17:25:12.101Z,39.72
2022-09-18T17:28:00.804Z,39.11
2022-09-18T17:30:50.782Z,39.18
2022-09-18T17:33:39.644Z,39.08
2022-09-18T17:36:28.213Z,39.17
2022-09-18T17:39:18.059Z,38.89
2022-09-18T17:42:07.362Z,38.73
2022-09-18T17:44:56.722Z,38.95
2022-09-18T17:47:45.211Z,38.91
2022-09-18T17:50:37.978Z,39.16
2022-09-18T17:53:26.723Z,38.92
2022-09-18T17:56:18.260Z,39.09
2022-09-18T17:59:08.109Z,39.42
2022-09-18T18:01:56.602Z,38.97
2022-09-18T18:04:45.098Z,38.93
2022-09-18T18:07:34.850Z,38.99
2022-09-18T18:10:23.319Z,38.94
2022-09-18T18:13:17.144Z,39.30
2022-09-18T18:16:11.708Z,38.87
2022-09-18T18:19:01.403Z,39.04
2022-09-18T18:21:49.996Z,39.27
2022-09-18T18:24:39.476Z,38.65
2022-09-18T18:27:28.182Z,39.26
2022-09-18T18:30:18.809Z,39.07
2022-09-18T18:33:07.285Z,38.96
2022-09-18T18:35:55.737Z,39.35
2022-09-18T18:38:45.912Z,39.39
2022-09-18T18:41:34.723Z,39.03
2022-09-18T18:44:23.352Z,39.09
2022-09-18T18:47:13.539Z,38.93
2022-09-18T18:50:02.229Z,38.57
2022-09-18T18:52:50.997Z,38.89
2022-09-18T18:55:39.479Z,38.40
2022-09-18T18:58:28.191Z,38.67
2022-09-18T19:01:18.881Z,38.58
2022-09-18T19:04:11.039Z,38.76
2022-09-18T19:06:59.503Z,38.75
2022-09-18T19:09:47.965Z,38.89
2022-09-18T19:12:36.384Z,39.13
2022-09-18T19:15:25.402Z,39.21
2022-09-18T19:18:13.939Z,39.06
2022-09-18T19:21:03.983Z,39.25
2022-09-18T19:23:53.428Z,38.97
2022-09-18T19:26:42.788Z,39.21
2022-09-18T19:29:31.552Z,39.63
2022-09-18T19:32:21.026Z,39.56
2022-09-18T19:35:09.641Z,39.29
2022-09-18T19:38:02.205Z,39.70
2022-09-18T19:40:51.272Z,39.63
2022-09-18T19:43:40.907Z,39.69
2022-09-18T19:46:30.964Z,39.36
2022-09-18T19:49:21.516Z,39.61
2022-09-18T19:52:17.920Z,39.22
2022-09-18T19:55:13.676Z,39.12
2022-09-18T19:58:02.904Z,38.72
2022-09-18T20:00:51.624Z,38.92
2022-09-18T20:03:40.493Z,38.47
2022-09-18T20:06:29.245Z,38.68
2022-09-18T20:09:17.725Z,38.46
2022-09-18T20:12:10.226Z,38.36
2022-09-18T20:14:59.260Z,38.39
2022-09-18T20:17:47.872Z,38.13
2022-09-18T20:20:37.687Z,37.79
2022-09-18T20:23:26.083Z,38.03
2022-09-18T20:26:19.515Z,37.63
2022-09-18T20:29:12.000Z,37.89
2022-09-18T20:32:02.891Z,37.55
2022-09-18T20:34:51.359Z,37.70
2022-09-18T20:37:39.824Z,37.22
2022-09-18T20:40:28.484Z,37.15
2022-09-18T20:43:17.870Z,37.42
2022-09-18T20:46:11.480Z,37.02
2022-09-18T20:49:00.710Z,37.21
2022-09-18T20:51:49.062Z,36.89
2022-09-18T20:54:37.583Z,36.89
2022-09-18T20:57:26.026Z,36.89
2022-09-18T21:00:16.217Z,37.32
2022-09-18T21:03:08.600Z,37.17
2022-09-18T21:06:20.937Z,37.14
2022-09-18T21:09:10.129Z,37.01
2022-09-18T21:11:58.663Z,36.98
2022-09-18T21:14:47.837Z,36.71
2022-09-18T21:17:38.444Z,36.98
2022-09-18T21:20:28.285Z,37.51
2022-09-18T21:23:34.623Z,37.90
2022-09-18T21:26:24.344Z,37.76
2022-09-18T21:29:14.555Z,37.78
2022-09-18T21:32:03.386Z,37.58
2022-09-18T21:34:53.539Z,38.17
2022-09-18T21:37:43.441Z,37.96
2022-09-18T21:40:32.464Z,37.79
2022-09-18T21:43:23.639Z,37.97
2022-09-18T21:46:13.958Z,38.05
2022-09-18T21:49:06.730Z,37.91
2022-09-18T21:51:56.689Z,37.35
2022-09-18T21:54:47.541Z,37.13
2022-09-18T21:57:36.857Z,36.89
2022-09-18T22:00:28.066Z,37.11
2022-09-18T22:03:16.944Z,37.25
2022-09-18T22:06:06.014Z,37.66
2022-09-18T22:08:56.421Z,37.57
2022-09-18T22:11:47.593Z,37.55
2022-09-18T22:14:38.158Z,37.73
2022-09-18T22:17:27.344Z,37.64
2022-09-18T22:20:17.523Z,37.43
2022-09-18T22:23:05.951Z,37.61
2022-09-18T22:26:00.085Z,37.74
2022-09-18T22:28:53.387Z,37.24
2022-09-18T22:31:42.209Z,37.53
2022-09-18T22:34:33.400Z,37.21
2022-09-18T22:37:22.353Z,37.05
2022-09-18T22:40:11.699Z,36.86
2022-09-18T22:43:00.165Z,36.89
2022-09-18T22:45:49.944Z,36.61
2022-09-18T22:48:39.046Z,36.66
2022-09-18T22:51:28.581Z,36.79
2022-09-18T22:54:17.372Z,36.46
2022-09-18T22:57:05.805Z,36.63
2022-09-18T22:59:54.184Z,36.72
2022-09-18T23:02:44.030Z,36.22
2022-09-18T23:05:32.522Z,36.51
2022-09-18T23:08:20.919Z,36.41
2022-09-18T23:11:11.558Z,36.63
2022-09-18T23:14:03.106Z,36.74
2022-09-18T23:16:51.953Z,36.41
2022-09-18T23:19:42.172Z,36.00
2022-09-18T23:22:30.937Z,36.51
2022-09-18T23:25:19.401Z,36.69
2022-09-18T23:28:07.833Z,36.63
2022-09-18T23:30:56.250Z,36.39
2022-09-18T23:33:49.569Z,36.48
2022-09-18T23:36:41.047Z,36.41
2022-09-18T23:39:31.539Z,36.44
2022-09-18T23:42:19.933Z,36.76
2022-09-18T23:45:09.540Z,36.73
2022-09-18T23:47:58.003Z,36.88
2022-09-18T23:50:46.383Z,36.79
2022-09-18T23:53:38.168Z,37.01
2022-09-18T23:56:27.188Z,37.10
2022-09-18T23:59:20.694Z,36.99
